Rankin Inlet Airport
CYRT : now visible

Airfield :











YOU CAN JOIN US ON...

 
LOGIN :

Register | Disclaimer

   EN    FR    IT 

 









Legend :    VFR   Marginal VFR   IFR   Intensive IFR   Very Intensive IFR
Visi :
Ceiling :
>= 8 km
>= 3000ft
5 to 8 km
1000 to 3000 ft
1500m to 5 km
500 to 1000 ft
800 to 1500m
200 to 500 ft
< 800m
< 200 ft
Symbols :   Thunderstorms  Fog  Heavy snow  Heavy precipitations  Wind > 20 kt






- Airport Elevation : 94 ft
- IATA code : YRT


CYRT - Rankin Inlet

CURRENT METAR :
  • 220100Z 33036G42KT 0SM -SN BLSN OVC002 M32/M36 A2946 RMK BLSN7ST1 SLP983

EXPIRED METARs :
  • 220000Z 33034G41KT 0SM -SN BLSN OVC002 M31/M36 A2945 RMK BLSN6ST2 SLP980
  • 212326Z 33037G45KT 0SM -SN BLSN OVC002 M31/M35 A2944 RMK BLSN7SF1 SLP975
  • 212300Z 33033G40KT 0SM IC BLSN SKC M31/M35 A2944 RMK BLSN7 PRESRR SLP976

TAF TAF CYRT
Valid from the 22 at 00:00 until the 22 at 12:00 UTC


212340Z 2200/2212 33032G42KT 0SM IC BLSN SCT002 RMK NXT FCST BY 220600Z
CZEG FIR / North America



MET'MAP, your aeronautical weather chart ! - Copyright ORBIFLY December 2007 - Disclaimer

ORBIFLY MET'MAP TEAM :

Programming & Development : Alexandra Zaïnal
Concept & original design : Baudouin d'Aumeries
Assistance for programming : Marc-Olivier Méhu
Technical & hardware support : Manuel Goepfert

Contact : metmap@orbifly.com




SOURCES & CREDITS :

   NOAA       Earth
Advisory